Косолапово

Карта отелей и гостиниц, располагающихся рядом с аэропортом Косолапово :

Косолапово Марий Эл 56° 55' 11.28" N, 49° 37' 22.0188" E
Код аэродрома ИКАО
ZE3U
Код аэродрома RU
ЗЕ3У
Координаты
N56.91980° E049.62278°
Превышение над уровнем моря
149
Основная полоса
12/30
Курс магнитный
115,1/295,1
Длина основной ВПП
450
Ширина основной ВПП
20
Покрытие основной ВПП
Твёрдое (асфальт)
Освещение ВПП
Нет
Тип: 
Аэродром
Класс аэродрома: 
Принадлежность: 
ГА
Статус: 
Недействующий
Сайт: 
E-mail аэродрома: 
Страна: 
Россия
Регион: 
Марий Эл
Город: 
Дополнительная информация: 
Площадка АХР.

Найти трансфер

С помощью этой формы Вы можете найти трансфер из аэропорта Косолапово в город, аэропорт или вокзал:

Карта места

Javascript is required to view this map.

Погода в аэропортах:

Авиационная погода в Алматы

Регион: 
Погода METAR: 
UAAA 170530Z 34002MPS 2300 FU NSC M04/M10 Q1019 R05L/3///50 R05R/3///45 NOSIG
Время наблюдения
2021-01-17T05:30:00Z
Температура C
-4.0
Точка росы
-10.0
Направление ветра
340
Скорость ветра (узлы)
4
Метео видимость
1.43
Явления погоды
FU
Условия полета
IFR
Аэропорт подробнее: 

Авиационная погода в Анапе

Регион: 
Погода METAR: 
URKA 170530Z 07015MPS 0450 0350SW R04/0400N +SN BLSN VV002 M05/M07 Q1001 R04/451042 NOSIG RMK QBB080 OBST OBSC QFE747/0996
Время наблюдения
2021-01-17T05:30:00Z
Температура C
-5.0
Точка росы
-7.0
Направление ветра
70
Скорость ветра (узлы)
29
Метео видимость
0.28
Явления погоды
BLSN +SN
Условия полета
LIFR
Аэропорт подробнее: 

Авиационная погода в Пулково

Регион: 
Погода METAR: 
ULLI 170530Z 24002MPS 190V270 9999 -SN BKN008 M10/M12 Q1016 R28L/490540 NOSIG
Время наблюдения
2021-01-17T05:30:00Z
Температура C
-10.0
Точка росы
-12.0
Направление ветра
240
Скорость ветра (узлы)
4
Метео видимость
6.21
Явления погоды
-SN
Условия полета
IFR
Аэропорт подробнее: 

Авиационная погода в Берлевоге

Регион: 
Погода METAR: 
ENBV 152020Z 32014KT 9999 VCSH FEW010 SCT018 BKN32 03/00 Q1011
Время наблюдения
2021-01-15T20:20:00Z
Температура C
3.0
Точка росы
0.0
Направление ветра
320
Скорость ветра (узлы)
14
Метео видимость
6.21
Явления погоды
VCSH
Условия полета
VFR